createdAt,value
2022-08-19T00:02:35.537Z,16.48
2022-08-19T00:07:38.541Z,15.95
2022-08-19T00:12:43.911Z,16.67
2022-08-19T00:17:49.745Z,16.75
2022-08-19T00:22:52.934Z,17.10
2022-08-19T00:27:54.802Z,14.80
2022-08-19T00:32:57.308Z,13.88
2022-08-19T00:37:59.489Z,16.08
2022-08-19T00:43:01.339Z,13.13
2022-08-19T00:48:14.802Z,11.40
2022-08-19T00:58:25.364Z,12.32
2022-08-19T01:03:27.510Z,15.48
2022-08-19T01:08:29.545Z,13.75
2022-08-19T01:13:48.943Z,13.68
2022-08-19T01:18:51.799Z,13.00
2022-08-19T01:23:53.882Z,13.60
2022-08-19T01:29:00.765Z,11.60
2022-08-19T01:34:04.087Z,13.15
2022-08-19T01:39:10.974Z,15.37
2022-08-19T01:44:18.370Z,12.15
2022-08-19T01:49:23.282Z,12.75
2022-08-19T01:54:27.582Z,12.35
2022-08-19T01:59:31.032Z,11.63
2022-08-19T02:04:32.806Z,12.27
2022-08-19T02:09:35.491Z,13.50
2022-08-19T02:14:37.506Z,13.57
2022-08-19T02:19:40.985Z,11.75
2022-08-19T02:24:43.203Z,12.57
2022-08-19T02:29:48.335Z,12.65
2022-08-19T02:34:50.779Z,12.02
2022-08-19T02:39:52.604Z,12.70
2022-08-19T02:44:56.951Z,11.35
2022-08-19T02:49:58.739Z,12.10
2022-08-19T02:55:01.104Z,12.88
2022-08-19T03:00:12.425Z,14.80
2022-08-19T03:05:14.286Z,11.65
2022-08-19T03:10:16.508Z,11.25
2022-08-19T03:15:18.318Z,11.32
2022-08-19T03:20:20.120Z,13.18
2022-08-19T03:25:21.942Z,14.48
2022-08-19T03:30:23.800Z,14.07
2022-08-19T03:35:25.724Z,12.93
2022-08-19T03:40:27.544Z,14.30
2022-08-19T03:45:30.014Z,12.52
2022-08-19T03:50:31.798Z,12.80
2022-08-19T03:55:33.636Z,15.00
2022-08-19T04:00:35.483Z,13.57
2022-08-19T04:05:38.904Z,14.85
2022-08-19T04:10:41.669Z,15.93
2022-08-19T04:15:47.665Z,13.73
2022-08-19T04:20:50.654Z,14.48
2022-08-19T04:25:52.448Z,14.43
2022-08-19T04:30:55.619Z,12.88
2022-08-19T04:35:59.204Z,12.60
2022-08-19T04:41:19.386Z,11.98
2022-08-19T04:46:39.173Z,12.15
2022-08-19T04:51:45.166Z,12.50
2022-08-19T04:56:46.948Z,12.30
2022-08-19T05:01:50.829Z,13.75
2022-08-19T05:06:53.260Z,14.95
2022-08-19T05:12:01.349Z,14.55
2022-08-19T05:17:25.974Z,15.60
2022-08-19T05:22:35.647Z,14.20
2022-08-19T05:27:37.970Z,12.93
2022-08-19T05:32:40.512Z,15.85
2022-08-19T05:37:42.317Z,16.50
2022-08-19T05:42:44.113Z,14.90
2022-08-19T05:47:46.089Z,14.93
2022-08-19T05:52:50.136Z,12.98
2022-08-19T05:57:52.645Z,13.73
2022-08-19T06:03:09.615Z,13.43
2022-08-19T06:08:14.430Z,12.63
2022-08-19T06:13:16.232Z,14.27
2022-08-19T06:18:18.139Z,13.73
2022-08-19T06:23:21.223Z,11.50
2022-08-19T06:28:26.164Z,12.15
2022-08-19T06:33:27.938Z,10.90
2022-08-19T06:38:29.889Z,13.27
2022-08-19T06:43:31.778Z,12.45
2022-08-19T06:48:36.600Z,10.90
2022-08-19T06:58:56.396Z,12.25
2022-08-19T07:03:58.187Z,12.18
2022-08-19T07:09:00.313Z,14.27
2022-08-19T07:14:03.549Z,11.88
2022-08-19T07:19:15.734Z,12.67
2022-08-19T07:24:18.454Z,13.30
2022-08-19T07:29:24.106Z,11.50
2022-08-19T07:34:29.231Z,12.82
2022-08-19T07:44:35.023Z,12.68
2022-08-19T07:49:36.830Z,14.10
2022-08-19T07:54:40.162Z,15.32
2022-08-19T07:59:42.092Z,15.82
2022-08-19T08:05:02.446Z,16.27
2022-08-19T08:10:07.295Z,17.05
2022-08-19T08:15:22.738Z,17.50
2022-08-19T08:20:27.043Z,15.43
2022-08-19T08:25:29.037Z,16.92
2022-08-19T08:30:36.792Z,18.30
2022-08-19T08:35:40.130Z,15.27
2022-08-19T08:40:51.535Z,17.58
2022-08-19T08:46:03.886Z,19.10
2022-08-19T08:51:11.499Z,19.83
2022-08-19T08:56:14.310Z,20.73
2022-08-19T09:01:20.838Z,17.52
2022-08-19T09:06:29.955Z,20.92
2022-08-19T09:11:57.537Z,21.95
2022-08-19T09:17:00.338Z,22.02
2022-08-19T09:22:02.300Z,19.15
2022-08-19T09:27:18.208Z,21.95
2022-08-19T09:32:26.148Z,21.60
2022-08-19T09:37:28.929Z,21.90
2022-08-19T09:42:35.227Z,20.67
2022-08-19T09:47:40.819Z,19.85
2022-08-19T09:52:43.248Z,19.15
2022-08-19T09:57:57.446Z,22.20
2022-08-19T10:02:59.330Z,20.02
2022-08-19T10:08:01.812Z,19.73
2022-08-19T10:13:07.420Z,16.92
2022-08-19T10:18:09.939Z,17.58
2022-08-19T10:23:11.943Z,17.60
2022-08-19T10:28:13.789Z,20.17
2022-08-19T10:33:16.152Z,13.18
2022-08-19T10:38:38.640Z,16.15
2022-08-19T10:43:42.104Z,17.73
2022-08-19T10:48:45.107Z,19.33
2022-08-19T10:53:46.992Z,21.58
2022-08-19T10:58:50.352Z,22.30
2022-08-19T11:03:52.204Z,19.00
2022-08-19T11:08:57.331Z,21.67
2022-08-19T11:13:59.511Z,18.08
2022-08-19T11:19:01.809Z,18.30
2022-08-19T11:24:24.521Z,17.73
2022-08-19T11:29:26.800Z,19.63
2022-08-19T11:34:29.348Z,17.42
2022-08-19T11:39:33.633Z,17.95
2022-08-19T11:44:36.818Z,14.90
2022-08-19T11:49:38.773Z,17.58
2022-08-19T11:54:40.576Z,16.45
2022-08-19T11:59:42.380Z,15.43
2022-08-19T12:04:44.298Z,15.98
2022-08-19T12:09:46.176Z,10.27
2022-08-19T12:14:51.747Z,13.48
2022-08-19T12:19:54.881Z,13.50
2022-08-19T12:24:56.986Z,12.13
2022-08-19T12:30:01.359Z,13.55
2022-08-19T12:35:03.639Z,12.57
2022-08-19T12:40:06.623Z,9.35
2022-08-19T12:45:12.791Z,7.97
2022-08-19T12:50:14.675Z,8.93
2022-08-19T12:55:16.550Z,9.43
2022-08-19T13:00:22.097Z,8.88
2022-08-19T13:05:26.805Z,9.45
2022-08-19T13:10:35.637Z,7.75
2022-08-19T13:15:41.120Z,6.97
2022-08-19T13:20:52.453Z,6.40
2022-08-19T13:26:04.234Z,5.60
2022-08-19T13:31:25.047Z,5.32
2022-08-19T13:36:26.888Z,4.28
2022-08-19T13:41:30.210Z,4.88
2022-08-19T13:51:33.833Z,3.95
2022-08-19T13:56:41.111Z,5.28
2022-08-19T14:01:42.997Z,4.60
2022-08-19T14:06:44.863Z,3.60
2022-08-19T14:11:47.833Z,4.25
2022-08-19T14:16:50.198Z,3.13
2022-08-19T14:21:51.991Z,3.10
2022-08-19T14:26:53.811Z,2.60
2022-08-19T14:31:57.164Z,2.00
2022-08-19T14:36:59.421Z,2.10
2022-08-19T14:42:11.565Z,1.92
2022-08-19T14:47:13.767Z,2.00
2022-08-19T14:52:15.997Z,1.90
2022-08-19T14:57:17.812Z,1.65
2022-08-19T15:02:34.427Z,1.70
2022-08-19T15:07:39.242Z,1.60
2022-08-19T15:12:41.521Z,1.70
2022-08-19T15:17:46.510Z,1.50
2022-08-19T15:22:48.707Z,1.50
2022-08-19T15:27:51.305Z,1.90
2022-08-19T15:32:54.217Z,1.70
2022-08-19T15:37:56.850Z,1.40
2022-08-19T15:42:58.823Z,1.80
2022-08-19T15:48:02.035Z,1.60
2022-08-19T15:53:07.610Z,1.50
2022-08-19T15:58:31.239Z,1.23
2022-08-19T16:03:51.493Z,1.50
2022-08-19T16:08:56.918Z,1.67
2022-08-19T16:13:59.762Z,1.55
2022-08-19T16:19:10.266Z,1.70
2022-08-19T16:24:15.559Z,1.60
2022-08-19T16:29:33.244Z,2.25
2022-08-19T16:34:38.127Z,2.58
2022-08-19T16:39:40.488Z,2.92
2022-08-19T16:44:46.072Z,2.85
2022-08-19T16:49:52.934Z,3.60
2022-08-19T16:54:56.616Z,3.25
2022-08-19T16:59:58.393Z,3.88
2022-08-19T17:05:00.500Z,4.55
2022-08-19T17:10:05.226Z,5.15
2022-08-19T17:15:10.904Z,4.85
2022-08-19T17:20:12.711Z,4.78
2022-08-19T17:25:15.561Z,5.65
2022-08-19T17:30:18.685Z,4.87
2022-08-19T17:35:24.061Z,4.95
2022-08-19T17:40:26.930Z,5.53
2022-08-19T17:45:31.998Z,4.97
2022-08-19T17:50:35.189Z,7.60
2022-08-19T17:55:37.233Z,3.67
2022-08-19T18:00:39.432Z,3.67
2022-08-19T18:05:56.956Z,3.45
2022-08-19T18:10:59.861Z,3.55
2022-08-19T18:16:02.531Z,3.23
2022-08-19T18:21:04.539Z,3.20
2022-08-19T18:26:06.620Z,3.70
2022-08-19T18:31:08.598Z,3.80
2022-08-19T18:36:10.408Z,4.07
2022-08-19T18:41:30.892Z,4.97
2022-08-19T18:46:51.684Z,3.50
2022-08-19T18:51:55.732Z,4.68
2022-08-19T18:56:57.509Z,4.22
2022-08-19T19:02:00.371Z,4.40
2022-08-19T19:07:02.340Z,4.87
2022-08-19T19:12:10.247Z,4.85
2022-08-19T19:17:15.062Z,4.82
2022-08-19T19:22:19.523Z,5.10
2022-08-19T19:27:22.160Z,5.63
2022-08-19T19:32:28.380Z,5.90
2022-08-19T19:37:30.166Z,6.80
2022-08-19T19:42:31.990Z,6.88
2022-08-19T19:47:33.899Z,7.20
2022-08-19T19:52:35.683Z,7.97
2022-08-19T19:57:39.265Z,7.45
2022-08-19T20:02:41.144Z,8.55
2022-08-19T20:08:01.808Z,9.15
2022-08-19T20:13:05.065Z,9.75
2022-08-19T20:18:06.867Z,8.60
2022-08-19T20:23:08.970Z,9.10
2022-08-19T20:28:12.343Z,7.90
2022-08-19T20:33:14.625Z,7.82
2022-08-19T20:38:16.431Z,7.50
2022-08-19T20:43:18.643Z,7.20
2022-08-19T20:48:20.464Z,7.07
2022-08-19T20:53:23.773Z,6.63
2022-08-19T20:58:26.032Z,6.10
2022-08-19T21:03:30.769Z,6.03
2022-08-19T21:08:32.580Z,6.22
2022-08-19T21:13:34.881Z,6.50
2022-08-19T21:18:36.837Z,6.90
2022-08-19T21:23:38.632Z,5.35
2022-08-19T21:28:40.406Z,6.30
2022-08-19T21:33:42.445Z,6.10
2022-08-19T21:38:44.284Z,5.88
2022-08-19T21:43:46.051Z,5.90
2022-08-19T21:48:48.297Z,6.35
2022-08-19T21:53:50.103Z,6.28
2022-08-19T21:58:56.688Z,5.47
2022-08-19T22:03:58.517Z,5.43
2022-08-19T22:09:00.328Z,5.80
2022-08-19T22:14:02.127Z,6.30
2022-08-19T22:19:06.273Z,6.53
2022-08-19T22:24:08.561Z,6.85
2022-08-19T22:29:10.476Z,6.63
2022-08-19T22:34:18.473Z,7.55
2022-08-19T22:39:20.270Z,6.97
2022-08-19T22:44:22.104Z,6.28
2022-08-19T22:49:23.919Z,7.68
2022-08-19T22:54:25.719Z,7.40
2022-08-19T22:59:27.571Z,6.07
2022-08-19T23:04:29.402Z,5.88
2022-08-19T23:09:31.245Z,5.70
2022-08-19T23:14:33.066Z,5.20
2022-08-19T23:19:35.513Z,5.65
2022-08-19T23:24:37.319Z,5.18
2022-08-19T23:29:58.985Z,5.10
2022-08-19T23:35:00.780Z,4.90
2022-08-19T23:40:03.701Z,5.15
2022-08-19T23:45:07.221Z,6.00
2022-08-19T23:50:09.690Z,4.93
2022-08-19T23:55:11.716Z,4.70
